createdAt,value
2019-02-20T00:00:50.924Z,101830.27
2019-02-20T00:01:55.929Z,101834.24
2019-02-20T00:03:01.018Z,101833.85
2019-02-20T00:04:06.093Z,101831.20
2019-02-20T00:05:11.797Z,101831.20
2019-02-20T00:06:16.839Z,101829.52
2019-02-20T00:07:21.802Z,101828.20
2019-02-20T00:08:26.770Z,101829.13
2019-02-20T00:09:31.722Z,101830.91
2019-02-20T00:10:36.642Z,101831.09
2019-02-20T00:11:41.849Z,101830.81
2019-02-20T00:12:46.790Z,101832.20
2019-02-20T00:13:51.828Z,101831.92
2019-02-20T00:14:56.799Z,101827.20
2019-02-20T00:16:01.926Z,101830.37
2019-02-20T00:17:11.861Z,101831.34
2019-02-20T00:18:17.211Z,101821.19
2019-02-20T00:19:22.170Z,101821.19
2019-02-20T00:20:27.112Z,101833.20
2019-02-20T00:21:32.052Z,101826.59
2019-02-20T00:22:40.198Z,101826.52
2019-02-20T00:23:43.701Z,101822.08
2019-02-20T00:24:48.631Z,101829.06
2019-02-20T00:25:53.595Z,101828.12
2019-02-20T00:26:59.205Z,101831.16
2019-02-20T00:28:04.369Z,101828.52
2019-02-20T00:29:09.284Z,101826.34
2019-02-20T00:30:14.305Z,101834.75
2019-02-20T00:31:19.250Z,101826.41
2019-02-20T00:32:24.469Z,101830.48
2019-02-20T00:33:29.390Z,101830.20
2019-02-20T00:34:34.312Z,101832.06
2019-02-20T00:35:39.257Z,101836.14
2019-02-20T00:36:44.449Z,101833.16
2019-02-20T00:37:49.371Z,101831.66
2019-02-20T00:38:54.738Z,101831.66
2019-02-20T00:39:59.833Z,101838.35
2019-02-20T00:41:05.158Z,101837.59
2019-02-20T00:42:10.464Z,101832.84
2019-02-20T00:43:15.461Z,101829.90
2019-02-20T00:44:51.853Z,101833.12
2019-02-20T00:46:16.161Z,101828.36
2019-02-20T00:47:28.854Z,101829.96
2019-02-20T00:48:52.106Z,101828.34
2019-02-20T00:49:57.053Z,101831.53
2019-02-20T00:51:13.643Z,101838.31
2019-02-20T00:52:31.332Z,101830.48
2019-02-20T00:53:41.395Z,101834.98
2019-02-20T00:54:46.316Z,101835.45
2019-02-20T00:55:51.277Z,101838.59
2019-02-20T00:56:56.171Z,101833.37
2019-02-20T00:58:01.229Z,101843.03
2019-02-20T00:59:06.346Z,101834.69
2019-02-20T01:00:12.435Z,101842.17
2019-02-20T01:01:17.368Z,101843.39
2019-02-20T01:02:22.409Z,101842.45
2019-02-20T01:03:27.405Z,101836.31
2019-02-20T01:04:36.172Z,101842.85
2019-02-20T01:05:41.357Z,101840.56
2019-02-20T01:06:46.332Z,101835.28
2019-02-20T01:07:51.911Z,101835.28
2019-02-20T01:08:56.852Z,101841.82
2019-02-20T01:10:01.850Z,101833.78
2019-02-20T01:11:06.895Z,101834.64
2019-02-20T01:12:12.556Z,101840.39
2019-02-20T01:13:17.602Z,101839.17
2019-02-20T01:14:22.507Z,101837.39
2019-02-20T01:15:27.485Z,101832.95
2019-02-20T01:16:33.101Z,101840.39
2019-02-20T01:17:38.134Z,101840.89
2019-02-20T01:18:43.085Z,101838.71
2019-02-20T01:19:48.315Z,101842.68
2019-02-20T01:20:53.321Z,101842.28
2019-02-20T01:21:58.577Z,101842.68
2019-02-20T01:23:03.687Z,101842.68
2019-02-20T01:24:08.577Z,101838.31
2019-02-20T01:25:13.493Z,101835.67
2019-02-20T01:26:18.676Z,101835.67
2019-02-20T01:27:23.985Z,101839.17
2019-02-20T01:28:29.160Z,101836.53
2019-02-20T01:29:34.165Z,101837.09
2019-02-20T01:30:39.370Z,101838.31
2019-02-20T01:31:44.432Z,101833.59
2019-02-20T01:32:49.535Z,101836.60
2019-02-20T01:33:54.833Z,101839.25
2019-02-20T01:34:59.778Z,101839.74
2019-02-20T01:36:04.817Z,101840.20
2019-02-20T01:37:09.935Z,101842.45
2019-02-20T01:38:15.037Z,101843.03
2019-02-20T01:39:19.969Z,101847.53
2019-02-20T01:40:25.285Z,101841.88
2019-02-20T01:41:30.319Z,101841.02
2019-02-20T01:42:35.309Z,101835.21
2019-02-20T01:43:40.218Z,101835.21
2019-02-20T01:44:45.745Z,101839.94
2019-02-20T01:45:50.795Z,101837.29
2019-02-20T01:46:55.800Z,101836.53
2019-02-20T01:48:00.713Z,101839.25
2019-02-20T01:49:05.657Z,101840.67
2019-02-20T01:50:10.869Z,101833.27
2019-02-20T01:51:15.757Z,101839.52
2019-02-20T01:52:21.088Z,101836.48
2019-02-20T01:53:26.018Z,101837.34
2019-02-20T01:54:30.924Z,101830.79
2019-02-20T01:55:35.845Z,101825.50
2019-02-20T01:56:40.771Z,101830.43
2019-02-20T01:57:46.007Z,101822.49
2019-02-20T01:58:51.801Z,101818.13
2019-02-20T01:59:57.098Z,101819.45
2019-02-20T02:01:02.160Z,101818.13
2019-02-20T02:02:07.374Z,101821.70
2019-02-20T02:03:12.640Z,101826.53
2019-02-20T02:04:17.770Z,101823.59
2019-02-20T02:05:22.726Z,101820.55
2019-02-20T02:06:27.620Z,101818.08
2019-02-20T02:07:32.798Z,101819.97
2019-02-20T02:08:37.800Z,101823.08
2019-02-20T02:09:43.070Z,101820.59
2019-02-20T02:10:48.276Z,101818.95
2019-02-20T02:11:53.423Z,101816.41
2019-02-20T02:12:58.336Z,101820.08
2019-02-20T02:14:03.319Z,101824.97
2019-02-20T02:15:08.861Z,101821.17
2019-02-20T02:16:13.887Z,101828.24
2019-02-20T02:17:18.927Z,101826.92
2019-02-20T02:18:23.899Z,101824.73
2019-02-20T02:19:28.884Z,101823.42
2019-02-20T02:20:33.989Z,101826.92
2019-02-20T02:21:42.280Z,101825.14
2019-02-20T02:22:47.298Z,101828.64
2019-02-20T02:23:52.232Z,101829.80
2019-02-20T02:24:57.620Z,101831.58
2019-02-20T02:26:10.629Z,101829.70
2019-02-20T02:27:09.301Z,101828.94
2019-02-20T02:28:14.243Z,101835.94
2019-02-20T02:29:19.653Z,101834.16
2019-02-20T02:30:24.617Z,101830.55
2019-02-20T02:31:29.603Z,101833.59
2019-02-20T02:32:34.532Z,101834.52
2019-02-20T02:33:40.162Z,101829.63
2019-02-20T02:34:45.157Z,101832.66
2019-02-20T02:35:55.783Z,101829.06
2019-02-20T02:37:00.744Z,101828.13
2019-02-20T02:38:06.341Z,101818.42
2019-02-20T02:39:11.384Z,101826.35
2019-02-20T02:40:16.666Z,101828.99
2019-02-20T02:41:21.630Z,101822.39
2019-02-20T02:42:26.551Z,101821.45
2019-02-20T02:43:31.544Z,101817.49
2019-02-20T02:44:36.829Z,101824.93
2019-02-20T02:45:42.372Z,101819.64
2019-02-20T02:46:47.682Z,101822.22
2019-02-20T02:47:52.663Z,101824.40
2019-02-20T02:48:57.972Z,101825.25
2019-02-20T02:50:02.993Z,101828.83
2019-02-20T02:51:07.896Z,101830.61
2019-02-20T02:52:12.902Z,101819.17
2019-02-20T02:53:18.400Z,101818.31
2019-02-20T02:54:23.304Z,101820.59
2019-02-20T02:55:28.315Z,101817.27
2019-02-20T02:56:33.644Z,101817.44
2019-02-20T02:57:38.938Z,101818.92
2019-02-20T02:58:44.224Z,101821.64
2019-02-20T02:59:49.161Z,101817.38
2019-02-20T03:00:54.511Z,101816.58
2019-02-20T03:01:59.466Z,101811.39
2019-02-20T03:03:04.367Z,101817.14
2019-02-20T03:04:09.460Z,101813.74
2019-02-20T03:05:14.400Z,101816.39
2019-02-20T03:06:19.326Z,101814.20
2019-02-20T03:07:24.283Z,101815.98
2019-02-20T03:08:29.235Z,101814.73
2019-02-20T03:09:34.534Z,101814.84
2019-02-20T03:10:39.457Z,101809.31
2019-02-20T03:11:44.804Z,101806.84
2019-02-20T03:12:49.677Z,101810.91
2019-02-20T03:13:54.783Z,101806.61
2019-02-20T03:15:00.420Z,101807.07
2019-02-20T03:16:05.494Z,101812.85
2019-02-20T03:17:10.460Z,101815.39
2019-02-20T03:18:15.400Z,101815.86
2019-02-20T03:19:20.341Z,101809.65
2019-02-20T03:20:25.594Z,101811.83
2019-02-20T03:21:30.584Z,101814.94
2019-02-20T03:22:36.297Z,101818.90
2019-02-20T03:23:41.576Z,101821.47
2019-02-20T03:24:46.591Z,101818.44
2019-02-20T03:25:51.907Z,101819.36
2019-02-20T03:26:56.969Z,101824.19
2019-02-20T03:28:01.998Z,101824.58
2019-02-20T03:29:07.016Z,101821.94
2019-02-20T03:30:12.043Z,101824.02
2019-02-20T03:31:16.957Z,101824.48
2019-02-20T03:32:21.910Z,101824.42
2019-02-20T03:33:27.134Z,101824.71
2019-02-20T03:34:32.219Z,101825.97
2019-02-20T03:35:37.517Z,101824.95
2019-02-20T03:36:42.413Z,101826.56
2019-02-20T03:37:47.375Z,101831.69
2019-02-20T03:38:52.639Z,101829.04
2019-02-20T03:39:57.600Z,101833.41
2019-02-20T03:41:02.576Z,101826.33
2019-02-20T03:42:07.631Z,101832.45
2019-02-20T03:43:12.820Z,101833.30
2019-02-20T03:44:17.837Z,101835.95
2019-02-20T03:45:22.827Z,101831.91
2019-02-20T03:46:27.746Z,101831.45
2019-02-20T03:47:32.731Z,101829.66
2019-02-20T03:48:37.705Z,101833.63
2019-02-20T03:49:42.760Z,101833.23
2019-02-20T03:50:47.762Z,101830.59
2019-02-20T03:51:52.763Z,101841.56
2019-02-20T03:52:57.669Z,101829.17
2019-02-20T03:54:02.805Z,101837.03
2019-02-20T03:55:07.877Z,101826.06
2019-02-20T03:56:13.284Z,101826.06
2019-02-20T03:57:18.465Z,101835.55
2019-02-20T03:58:23.492Z,101831.19
2019-02-20T03:59:28.798Z,101843.55
2019-02-20T04:00:34.146Z,101836.64
2019-02-20T04:01:39.170Z,101837.95
2019-02-20T04:02:44.159Z,101838.81
2019-02-20T04:03:49.383Z,101834.00
2019-02-20T04:04:54.716Z,101839.68
2019-02-20T04:05:59.609Z,101836.64
2019-02-20T04:07:04.532Z,101838.75
2019-02-20T04:08:09.526Z,101836.11
2019-02-20T04:09:14.813Z,101833.83
2019-02-20T04:10:19.853Z,101838.19
2019-02-20T04:11:24.874Z,101837.43
2019-02-20T04:12:29.838Z,101840.44
2019-02-20T04:13:35.261Z,101842.62
2019-02-20T04:14:40.526Z,101844.80
2019-02-20T04:15:45.508Z,101850.48
2019-02-20T04:16:50.469Z,101848.20
2019-02-20T04:17:55.786Z,101841.98
2019-02-20T04:19:00.815Z,101845.03
2019-02-20T04:20:06.777Z,101845.39
2019-02-20T04:21:12.062Z,101843.61
2019-02-20T04:22:16.999Z,101840.10
2019-02-20T04:23:21.919Z,101841.82
2019-02-20T04:24:26.922Z,101844.00
2019-02-20T04:25:31.897Z,101843.54
2019-02-20T04:26:38.771Z,101840.50
2019-02-20T04:27:43.655Z,101841.82
2019-02-20T04:28:48.718Z,101841.53
2019-02-20T04:29:53.735Z,101841.59
2019-02-20T04:30:58.663Z,101842.16
2019-02-20T04:32:03.685Z,101840.44
2019-02-20T04:33:08.952Z,101846.13
2019-02-20T04:34:13.882Z,101840.91
2019-02-20T04:35:18.817Z,101840.08
2019-02-20T04:36:24.112Z,101841.30
2019-02-20T04:37:29.012Z,101839.52
2019-02-20T04:38:33.993Z,101839.58
2019-02-20T04:39:38.904Z,101845.27
2019-02-20T04:40:43.837Z,101841.86
2019-02-20T04:41:48.783Z,101845.36
2019-02-20T04:42:53.674Z,101838.36
2019-02-20T04:43:58.605Z,101844.41
2019-02-20T04:45:05.089Z,101848.77
2019-02-20T04:46:10.321Z,101852.17
2019-02-20T04:47:15.723Z,101845.03
2019-02-20T04:48:20.622Z,101851.64
2019-02-20T04:49:25.569Z,101848.03
2019-02-20T04:50:30.495Z,101851.08
2019-02-20T04:51:35.398Z,101844.00
2019-02-20T04:52:40.512Z,101848.83
2019-02-20T04:53:45.498Z,101846.58
2019-02-20T04:54:50.521Z,101852.80
2019-02-20T04:55:55.451Z,101852.40
2019-02-20T04:57:00.761Z,101850.15
2019-02-20T04:58:20.353Z,101842.97
2019-02-20T04:59:25.418Z,101851.77
2019-02-20T05:00:30.543Z,101847.34
2019-02-20T05:01:35.875Z,101843.83
2019-02-20T05:02:40.812Z,101847.90
2019-02-20T05:03:46.086Z,101840.43
2019-02-20T05:04:51.165Z,101848.44
2019-02-20T05:05:56.129Z,101844.56
2019-02-20T05:07:01.082Z,101845.89
2019-02-20T05:08:06.194Z,101842.75
2019-02-20T05:09:11.541Z,101840.59
2019-02-20T05:10:16.482Z,101845.03
2019-02-20T05:11:21.817Z,101837.63
2019-02-20T05:12:27.208Z,101843.48
2019-02-20T05:13:32.250Z,101850.09
2019-02-20T05:14:37.237Z,101842.16
2019-02-20T05:15:42.243Z,101849.69
2019-02-20T05:16:47.576Z,101845.36
2019-02-20T05:17:52.760Z,101843.18
2019-02-20T05:18:57.873Z,101845.83
2019-02-20T05:20:02.940Z,101841.00
2019-02-20T05:21:07.864Z,101843.64
2019-02-20T05:22:12.834Z,101844.50
2019-02-20T05:23:18.144Z,101844.97
2019-02-20T05:24:25.013Z,101847.14
2019-02-20T05:25:29.872Z,101839.28
2019-02-20T05:26:34.827Z,101839.28
2019-02-20T05:27:39.782Z,101837.95
2019-02-20T05:28:45.075Z,101833.14
2019-02-20T05:29:50.278Z,101836.27
2019-02-20T05:30:55.256Z,101834.95
2019-02-20T05:32:00.216Z,101832.38
2019-02-20T05:33:05.182Z,101835.09
2019-02-20T05:34:10.313Z,101838.30
2019-02-20T05:35:15.288Z,101834.49
2019-02-20T05:36:20.281Z,101841.10
2019-02-20T05:37:25.228Z,101839.55
2019-02-20T05:38:30.167Z,101842.30
2019-02-20T05:39:35.110Z,101844.60
2019-02-20T05:40:40.021Z,101842.06
2019-02-20T05:41:44.951Z,101845.62
2019-02-20T05:42:50.023Z,101844.01
2019-02-20T05:43:55.372Z,101840.97
2019-02-20T05:45:00.689Z,101841.53
2019-02-20T05:46:05.733Z,101839.05
2019-02-20T05:47:10.702Z,101840.89
2019-02-20T05:48:15.625Z,101837.89
2019-02-20T05:49:21.002Z,101837.89
2019-02-20T05:50:26.540Z,101833.13
2019-02-20T05:51:31.795Z,101830.19
2019-02-20T05:52:36.805Z,101835.08
2019-02-20T05:53:41.818Z,101832.99
2019-02-20T05:54:46.903Z,101830.45
2019-02-20T05:55:51.855Z,101835.34
2019-02-20T05:56:56.928Z,101838.91
2019-02-20T05:58:01.831Z,101841.55
2019-02-20T05:59:06.828Z,101845.05
2019-02-20T06:00:12.277Z,101842.50
2019-02-20T06:01:17.228Z,101841.24
2019-02-20T06:02:22.267Z,101843.02
2019-02-20T06:03:27.184Z,101840.94
2019-02-20T06:04:32.893Z,101840.94
2019-02-20T06:05:38.123Z,101837.91
2019-02-20T06:06:43.142Z,101845.06
2019-02-20T06:07:48.146Z,101840.77
2019-02-20T06:08:53.100Z,101839.94
2019-02-20T06:09:58.021Z,101850.02
2019-02-20T06:11:13.873Z,101846.05
2019-02-20T06:12:09.709Z,101851.83
2019-02-20T06:13:14.615Z,101850.87
2019-02-20T06:14:19.681Z,101852.12
2019-02-20T06:15:24.616Z,101857.81
2019-02-20T06:16:29.564Z,101863.00
2019-02-20T06:17:34.830Z,101862.44
2019-02-20T06:18:39.849Z,101864.09
2019-02-20T06:19:44.792Z,101867.05
2019-02-20T06:20:49.772Z,101868.27
2019-02-20T06:21:54.747Z,101869.12
2019-02-20T06:23:00.044Z,101868.11
2019-02-20T06:24:05.007Z,101864.08
2019-02-20T06:25:10.347Z,101863.16
2019-02-20T06:26:15.325Z,101866.95
2019-02-20T06:27:20.561Z,101869.50
2019-02-20T06:28:25.519Z,101869.44
2019-02-20T06:29:30.520Z,101869.34
2019-02-20T06:30:35.479Z,101866.63
2019-02-20T06:31:40.991Z,101871.45
2019-02-20T06:32:45.948Z,101870.50
2019-02-20T06:33:50.951Z,101877.44
2019-02-20T06:34:55.991Z,101873.48
2019-02-20T06:36:00.960Z,101877.80
2019-02-20T06:37:05.984Z,101879.92
2019-02-20T06:38:11.866Z,101879.92
2019-02-20T06:39:17.279Z,101875.50
2019-02-20T06:40:22.203Z,101879.36
2019-02-20T06:41:27.190Z,101877.12
2019-02-20T06:42:32.577Z,101877.02
2019-02-20T06:43:37.626Z,101878.27
2019-02-20T06:44:42.552Z,101875.62
2019-02-20T06:45:48.098Z,101878.67
2019-02-20T06:46:53.419Z,101872.89
2019-02-20T06:47:58.319Z,101876.79
2019-02-20T06:49:03.224Z,101881.91
2019-02-20T06:50:08.416Z,101875.70
2019-02-20T06:51:13.399Z,101876.92
2019-02-20T06:52:18.424Z,101877.72
2019-02-20T06:53:23.636Z,101883.77
2019-02-20T06:54:28.720Z,101884.16
2019-02-20T06:55:34.057Z,101884.06
2019-02-20T06:56:39.143Z,101878.78
2019-02-20T06:57:44.782Z,101885.39
2019-02-20T06:58:49.821Z,101887.67
2019-02-20T06:59:54.780Z,101887.67
2019-02-20T07:00:59.790Z,101889.81
2019-02-20T07:02:04.800Z,101894.64
2019-02-20T07:03:09.732Z,101899.00
2019-02-20T07:04:15.092Z,101902.97
2019-02-20T07:05:34.416Z,101901.19
2019-02-20T07:06:54.518Z,101906.02
2019-02-20T07:08:26.381Z,101901.65
2019-02-20T07:09:58.238Z,101899.77
2019-02-20T07:11:44.199Z,101902.05
2019-02-20T07:12:57.629Z,101905.22
2019-02-20T07:14:41.117Z,101896.92
2019-02-20T07:16:32.497Z,101902.67
2019-02-20T07:18:15.225Z,101908.65
2019-02-20T07:19:33.013Z,101905.41
2019-02-20T07:21:14.976Z,101903.78
2019-02-20T07:22:51.012Z,101901.14
2019-02-20T07:24:33.098Z,101904.31
2019-02-20T07:26:13.536Z,101904.57
2019-02-20T07:27:50.038Z,101911.80
2019-02-20T07:29:23.533Z,101912.88
2019-02-20T07:30:28.458Z,101910.41
2019-02-20T07:31:33.775Z,101918.48
2019-02-20T07:32:38.810Z,101913.27
2019-02-20T07:33:43.739Z,101917.69
2019-02-20T07:34:48.637Z,101923.93
2019-02-20T07:35:53.935Z,101918.70
2019-02-20T07:36:58.946Z,101921.45
2019-02-20T07:38:04.400Z,101928.05
2019-02-20T07:39:09.454Z,101926.73
2019-02-20T07:40:14.476Z,101926.80
2019-02-20T07:41:19.489Z,101926.39
2019-02-20T07:42:24.393Z,101929.03
2019-02-20T07:43:29.484Z,101927.72
2019-02-20T07:44:34.462Z,101926.89
2019-02-20T07:45:39.847Z,101923.45
2019-02-20T07:46:45.068Z,101926.03
2019-02-20T07:47:50.303Z,101931.22
2019-02-20T07:48:55.248Z,101936.50
2019-02-20T07:50:00.418Z,101932.08
2019-02-20T07:51:05.830Z,101934.26
2019-02-20T07:52:11.108Z,101933.80
2019-02-20T07:53:16.346Z,101937.30
2019-02-20T07:54:21.751Z,101936.34
2019-02-20T07:55:26.831Z,101938.06
2019-02-20T07:56:32.047Z,101940.15
2019-02-20T07:57:37.042Z,101941.87
2019-02-20T07:58:42.289Z,101944.05
2019-02-20T07:59:47.361Z,101943.19
2019-02-20T08:00:52.885Z,101947.55
2019-02-20T08:01:57.757Z,101947.92
2019-02-20T08:03:02.654Z,101947.86
2019-02-20T08:04:07.833Z,101948.16
2019-02-20T08:05:12.969Z,101952.92
2019-02-20T08:06:18.209Z,101951.05
2019-02-20T08:07:23.140Z,101947.78
2019-02-20T08:08:28.084Z,101952.45
2019-02-20T08:09:33.052Z,101945.58
2019-02-20T08:10:38.071Z,101946.78
2019-02-20T08:11:43.283Z,101949.72
2019-02-20T08:12:48.180Z,101954.85
2019-02-20T08:13:53.180Z,101955.09
2019-02-20T08:14:58.496Z,101954.99
2019-02-20T08:16:03.558Z,101958.73
2019-02-20T08:17:08.480Z,101958.47
2019-02-20T08:18:13.765Z,101968.06
2019-02-20T08:19:19.057Z,101966.12
2019-02-20T08:20:24.145Z,101966.31
2019-02-20T08:21:29.508Z,101970.98
2019-02-20T08:22:34.467Z,101968.64
2019-02-20T08:23:39.760Z,101976.80
2019-02-20T08:24:44.867Z,101968.70
2019-02-20T08:25:49.816Z,101973.36
2019-02-20T08:26:55.122Z,101976.31
2019-02-20T08:28:00.395Z,101971.25
2019-02-20T08:29:05.865Z,101970.72
2019-02-20T08:30:13.931Z,101970.62
2019-02-20T08:31:18.834Z,101973.09
2019-02-20T08:32:23.843Z,101974.42
2019-02-20T08:33:28.901Z,101972.17
2019-02-20T08:34:33.918Z,101979.02
2019-02-20T08:35:38.866Z,101971.44
2019-02-20T08:36:44.203Z,101979.61
2019-02-20T08:37:49.111Z,101977.95
2019-02-20T08:38:54.018Z,101977.95
2019-02-20T08:39:59.279Z,101980.89
2019-02-20T08:41:04.350Z,101980.42
2019-02-20T08:42:09.379Z,101980.06
2019-02-20T08:43:14.314Z,101978.18
2019-02-20T08:44:19.275Z,101974.20
2019-02-20T08:45:24.235Z,101976.69
2019-02-20T08:46:29.466Z,101984.06
2019-02-20T08:47:34.383Z,101981.74
2019-02-20T08:48:39.567Z,101977.60
2019-02-20T08:49:44.706Z,101978.36
2019-02-20T08:50:49.925Z,101981.70
2019-02-20T08:51:54.873Z,101978.12
2019-02-20T08:52:59.843Z,101978.81
2019-02-20T08:54:04.815Z,101983.47
2019-02-20T08:55:10.026Z,101985.55
2019-02-20T08:56:14.970Z,101984.05
2019-02-20T08:57:20.230Z,101982.55
2019-02-20T08:58:25.364Z,101986.45
2019-02-20T08:59:30.309Z,101985.82
2019-02-20T09:00:35.448Z,101983.89
2019-02-20T09:01:40.368Z,101989.37
2019-02-20T09:02:45.655Z,101991.31
2019-02-20T09:03:50.806Z,101991.14
2019-02-20T09:04:55.783Z,101992.19
2019-02-20T09:06:00.879Z,101989.00
2019-02-20T09:07:05.875Z,101993.19
2019-02-20T09:08:10.874Z,101989.40
2019-02-20T09:09:16.031Z,101994.45
2019-02-20T09:10:20.973Z,101996.06
2019-02-20T09:11:26.239Z,101995.70
2019-02-20T09:12:31.160Z,101995.70
2019-02-20T09:13:36.127Z,101993.84
2019-02-20T09:14:41.136Z,101993.66
2019-02-20T09:15:46.247Z,101991.30
2019-02-20T09:16:51.596Z,101987.22
2019-02-20T09:17:56.566Z,101993.48
2019-02-20T09:19:01.649Z,101989.91
2019-02-20T09:20:07.589Z,101992.55
2019-02-20T09:21:12.575Z,101993.88
2019-02-20T09:22:17.576Z,101995.20
2019-02-20T09:23:22.496Z,102001.33
2019-02-20T09:24:27.942Z,101996.53
2019-02-20T09:25:41.354Z,101996.53
2019-02-20T09:26:39.482Z,101994.81
2019-02-20T09:27:44.729Z,101994.81
2019-02-20T09:28:49.735Z,102002.30
2019-02-20T09:29:54.766Z,101997.93
2019-02-20T09:30:59.714Z,102000.97
2019-02-20T09:32:05.069Z,101998.69
2019-02-20T09:33:10.020Z,102001.16
2019-02-20T09:34:15.293Z,102001.16
2019-02-20T09:35:20.262Z,102005.91
2019-02-20T09:36:25.221Z,101991.98
2019-02-20T09:37:30.225Z,102003.77
2019-02-20T09:38:35.192Z,102007.95
2019-02-20T09:39:40.255Z,102007.41
2019-02-20T09:40:45.227Z,102007.41
2019-02-20T09:41:50.430Z,102004.11
2019-02-20T09:42:55.498Z,102001.34
2019-02-20T09:44:00.780Z,102000.02
2019-02-20T09:45:06.700Z,102008.30
2019-02-20T09:46:11.955Z,102000.04
2019-02-20T09:47:17.665Z,102000.04
2019-02-20T09:48:22.686Z,101998.53
2019-02-20T09:49:27.643Z,101991.91
2019-02-20T09:50:32.819Z,101991.91
2019-02-20T09:51:38.055Z,101994.11
2019-02-20T09:52:51.921Z,101999.70
2019-02-20T09:53:50.204Z,101995.92
2019-02-20T09:54:55.635Z,101995.73
2019-02-20T09:56:00.661Z,101989.67
2019-02-20T09:57:05.671Z,101996.30
2019-02-20T09:58:10.724Z,101992.13
2019-02-20T09:59:16.047Z,101992.91
2019-02-20T10:00:21.481Z,101991.86
2019-02-20T10:01:26.376Z,101998.88
2019-02-20T10:02:31.369Z,101990.45
2019-02-20T10:03:36.401Z,101995.19
2019-02-20T10:04:41.792Z,101990.81
2019-02-20T10:05:46.840Z,101995.66
2019-02-20T10:06:51.884Z,101991.20
2019-02-20T10:07:57.178Z,101996.05
2019-02-20T10:09:02.116Z,101999.55
2019-02-20T10:10:07.566Z,101997.26
2019-02-20T10:11:12.548Z,101990.27
2019-02-20T10:12:17.436Z,101986.75
2019-02-20T10:13:22.459Z,101989.80
2019-02-20T10:14:28.083Z,101988.36
2019-02-20T10:15:32.994Z,101981.33
2019-02-20T10:16:37.996Z,101995.85
2019-02-20T10:17:43.128Z,101991.77
2019-02-20T10:18:48.183Z,101991.77
2019-02-20T10:19:53.298Z,101988.17
2019-02-20T10:20:58.544Z,101992.81
2019-02-20T10:22:03.484Z,101992.81
2019-02-20T10:23:08.734Z,101995.28
2019-02-20T10:24:14.106Z,102002.59
2019-02-20T10:25:19.118Z,101992.71
2019-02-20T10:26:24.029Z,101998.61
2019-02-20T10:27:29.122Z,102002.79
2019-02-20T10:28:34.064Z,101998.97
2019-02-20T10:29:38.973Z,101997.98
2019-02-20T10:30:43.981Z,102001.31
2019-02-20T10:31:49.229Z,102003.19
2019-02-20T10:32:54.674Z,102005.56
2019-02-20T10:33:59.643Z,101999.95
2019-02-20T10:35:04.895Z,102005.84
2019-02-20T10:36:09.912Z,102009.05
2019-02-20T10:37:15.119Z,102006.58
2019-02-20T10:38:20.070Z,102008.56
2019-02-20T10:39:25.517Z,102007.05
2019-02-20T10:40:30.798Z,102005.52
2019-02-20T10:41:35.788Z,102010.55
2019-02-20T10:42:41.100Z,102003.13
2019-02-20T10:43:46.105Z,102009.56
2019-02-20T10:44:51.089Z,102001.51
2019-02-20T10:45:56.125Z,102003.97
2019-02-20T10:47:01.328Z,102005.17
2019-02-20T10:48:06.331Z,102002.91
2019-02-20T10:49:11.306Z,102004.23
2019-02-20T10:50:16.452Z,102005.17
2019-02-20T10:51:21.428Z,102002.52
2019-02-20T10:52:26.376Z,102004.62
2019-02-20T10:53:31.431Z,101997.98
2019-02-20T10:54:36.419Z,101999.19
2019-02-20T10:55:42.073Z,102002.63
2019-02-20T10:56:47.217Z,102002.23
2019-02-20T10:57:52.101Z,102004.03
2019-02-20T10:58:57.082Z,102005.84
2019-02-20T11:00:02.320Z,102004.98
2019-02-20T11:01:07.661Z,102003.45
2019-02-20T11:02:13.088Z,102005.55
2019-02-20T11:03:18.182Z,102003.28
2019-02-20T11:04:23.189Z,102011.52
2019-02-20T11:05:28.436Z,102010.84
2019-02-20T11:06:33.478Z,102009.87
2019-02-20T11:07:39.137Z,102011.12
2019-02-20T11:08:45.450Z,102021.28
2019-02-20T11:09:50.417Z,102015.49
2019-02-20T11:10:55.889Z,102011.98
2019-02-20T11:12:00.928Z,102011.98
2019-02-20T11:13:06.300Z,102015.58
2019-02-20T11:14:11.631Z,102010.27
2019-02-20T11:15:16.616Z,102013.66
2019-02-20T11:16:21.590Z,102008.73
2019-02-20T11:17:26.538Z,102011.19
2019-02-20T11:18:31.545Z,102014.97
2019-02-20T11:19:36.488Z,102011.16
2019-02-20T11:20:48.273Z,102004.69
2019-02-20T11:21:48.370Z,102004.88
2019-02-20T11:22:53.577Z,102006.00
2019-02-20T11:23:58.758Z,102008.25
2019-02-20T11:25:04.140Z,102011.44
2019-02-20T11:26:17.554Z,102004.02
2019-02-20T11:27:16.213Z,102005.53
2019-02-20T11:28:26.797Z,102008.24
2019-02-20T11:29:28.283Z,102005.38
2019-02-20T11:30:33.308Z,102002.97
2019-02-20T11:31:38.273Z,102008.20
2019-02-20T11:32:43.371Z,102002.67
2019-02-20T11:33:48.944Z,102008.30
2019-02-20T11:34:53.882Z,102002.38
2019-02-20T11:35:59.003Z,102010.66
2019-02-20T11:37:04.303Z,102010.06
2019-02-20T11:38:09.293Z,102008.42
2019-02-20T11:39:14.564Z,102006.50
2019-02-20T11:40:19.639Z,102002.38
2019-02-20T11:41:24.631Z,102000.23
2019-02-20T11:42:29.529Z,102002.51
2019-02-20T11:43:34.583Z,102004.31
2019-02-20T11:44:39.541Z,102005.77
2019-02-20T11:45:48.096Z,102005.17
2019-02-20T11:46:53.074Z,102000.23
2019-02-20T11:47:58.430Z,102001.56
2019-02-20T11:49:03.416Z,101998.30
2019-02-20T11:50:09.009Z,101998.69
2019-02-20T11:51:14.279Z,101996.75
2019-02-20T11:52:19.243Z,101992.29
2019-02-20T11:53:24.123Z,101996.16
2019-02-20T11:54:29.028Z,102003.58
2019-02-20T11:55:34.031Z,101997.66
2019-02-20T11:56:39.099Z,102001.09
2019-02-20T11:57:44.048Z,102003.89
2019-02-20T11:58:49.317Z,102001.30
2019-02-20T11:59:54.278Z,101996.61
2019-02-20T12:00:59.330Z,101998.08
2019-02-20T12:02:04.385Z,101997.86
2019-02-20T12:03:09.375Z,101995.74
2019-02-20T12:04:14.590Z,102000.00
2019-02-20T12:05:19.491Z,102008.16
2019-02-20T12:06:24.531Z,101999.47
2019-02-20T12:07:30.281Z,101999.72
2019-02-20T12:08:35.614Z,102006.29
2019-02-20T12:09:40.617Z,101999.41
2019-02-20T12:10:45.662Z,101999.02
2019-02-20T12:11:50.938Z,102003.97
2019-02-20T12:12:55.968Z,102001.31
2019-02-20T12:14:01.074Z,101999.98
2019-02-20T12:15:06.412Z,101999.63
2019-02-20T12:16:11.433Z,101995.25
2019-02-20T12:17:16.792Z,101999.72
2019-02-20T12:18:21.811Z,101997.91
2019-02-20T12:19:27.185Z,102002.77
2019-02-20T12:20:32.112Z,102000.45
2019-02-20T12:21:37.087Z,101999.63
2019-02-20T12:22:42.058Z,101998.77
2019-02-20T12:23:47.277Z,102003.24
2019-02-20T12:24:52.287Z,101999.94
2019-02-20T12:25:57.236Z,101998.57
2019-02-20T12:27:02.870Z,101994.41
2019-02-20T12:28:08.211Z,101999.48
2019-02-20T12:29:13.156Z,101996.66
2019-02-20T12:30:18.277Z,101995.06
2019-02-20T12:31:23.265Z,101992.23
2019-02-20T12:32:28.609Z,101991.85
2019-02-20T12:33:33.935Z,101997.56